sensor_id;sensor_type;location;lat;lon;timestamp;P1;durP1;ratioP1;P2;durP2;ratioP2
59054;SDS011;44845;51.444;7.460;2023-02-07T00:01:08;27.33;;;14.15;;
59054;SDS011;44845;51.444;7.460;2023-02-07T00:03:34;29.90;;;15.63;;
59054;SDS011;44845;51.444;7.460;2023-02-07T00:06:04;30.17;;;14.43;;
59054;SDS011;44845;51.444;7.460;2023-02-07T00:08:34;26.63;;;14.00;;
59054;SDS011;44845;51.444;7.460;2023-02-07T00:13:30;23.48;;;13.05;;
59054;SDS011;44845;51.444;7.460;2023-02-07T00:15:55;26.40;;;12.40;;
59054;SDS011;44845;51.444;7.460;2023-02-07T00:18:21;23.52;;;12.45;;
59054;SDS011;44845;51.444;7.460;2023-02-07T00:20:56;27.25;;;12.80;;
59054;SDS011;44845;51.444;7.460;2023-02-07T00:23:25;27.50;;;12.45;;
59054;SDS011;44845;51.444;7.460;2023-02-07T00:25:51;24.60;;;12.25;;
59054;SDS011;44845;51.444;7.460;2023-02-07T00:28:17;23.52;;;11.77;;
59054;SDS011;44845;51.444;7.460;2023-02-07T00:30:42;25.50;;;12.20;;
59054;SDS011;44845;51.444;7.460;2023-02-07T00:33:07;21.30;;;11.40;;
59054;SDS011;44845;51.444;7.460;2023-02-07T00:35:33;20.63;;;11.15;;
59054;SDS011;44845;51.444;7.460;2023-02-07T00:37:58;22.95;;;11.90;;
59054;SDS011;44845;51.444;7.460;2023-02-07T00:40:23;20.25;;;11.23;;
59054;SDS011;44845;51.444;7.460;2023-02-07T00:42:49;21.60;;;10.70;;
59054;SDS011;44845;51.444;7.460;2023-02-07T00:45:14;21.98;;;12.13;;
59054;SDS011;44845;51.444;7.460;2023-02-07T00:47:40;21.25;;;10.13;;
59054;SDS011;44845;51.444;7.460;2023-02-07T00:50:05;18.17;;;10.13;;
59054;SDS011;44845;51.444;7.460;2023-02-07T00:52:31;18.98;;;11.27;;
59054;SDS011;44845;51.444;7.460;2023-02-07T00:54:56;21.42;;;11.90;;
59054;SDS011;44845;51.444;7.460;2023-02-07T00:57:22;23.08;;;10.75;;
59054;SDS011;44845;51.444;7.460;2023-02-07T00:59:47;24.88;;;11.40;;
59054;SDS011;44845;51.444;7.460;2023-02-07T01:02:12;20.75;;;10.82;;
59054;SDS011;44845;51.444;7.460;2023-02-07T01:04:38;20.00;;;11.00;;
59054;SDS011;44845;51.444;7.460;2023-02-07T01:07:03;20.63;;;11.07;;
59054;SDS011;44845;51.444;7.460;2023-02-07T01:09:28;20.55;;;10.25;;
59054;SDS011;44845;51.444;7.460;2023-02-07T01:11:54;19.85;;;9.85;;
59054;SDS011;44845;51.444;7.460;2023-02-07T01:14:19;21.05;;;11.23;;
59054;SDS011;44845;51.444;7.460;2023-02-07T01:16:45;18.27;;;10.73;;
59054;SDS011;44845;51.444;7.460;2023-02-07T01:19:10;19.25;;;10.38;;
59054;SDS011;44845;51.444;7.460;2023-02-07T01:21:35;19.63;;;10.73;;
59054;SDS011;44845;51.444;7.460;2023-02-07T01:24:01;19.50;;;10.45;;
59054;SDS011;44845;51.444;7.460;2023-02-07T01:26:27;21.88;;;11.10;;
59054;SDS011;44845;51.444;7.460;2023-02-07T01:28:53;18.40;;;9.85;;
59054;SDS011;44845;51.444;7.460;2023-02-07T01:31:19;22.13;;;11.23;;
59054;SDS011;44845;51.444;7.460;2023-02-07T01:33:46;20.70;;;10.60;;
59054;SDS011;44845;51.444;7.460;2023-02-07T01:36:13;20.13;;;11.57;;
59054;SDS011;44845;51.444;7.460;2023-02-07T01:38:40;22.17;;;11.25;;
59054;SDS011;44845;51.444;7.460;2023-02-07T01:41:06;22.30;;;10.00;;
59054;SDS011;44845;51.444;7.460;2023-02-07T01:43:32;24.95;;;10.23;;
59054;SDS011;44845;51.444;7.460;2023-02-07T01:45:57;21.05;;;11.25;;
59054;SDS011;44845;51.444;7.460;2023-02-07T01:48:24;19.15;;;10.57;;
59054;SDS011;44845;51.444;7.460;2023-02-07T01:50:55;16.75;;;9.00;;
59054;SDS011;44845;51.444;7.460;2023-02-07T01:53:24;17.95;;;9.20;;
59054;SDS011;44845;51.444;7.460;2023-02-07T01:55:53;17.48;;;9.05;;
59054;SDS011;44845;51.444;7.460;2023-02-07T01:58:20;16.13;;;8.90;;
59054;SDS011;44845;51.444;7.460;2023-02-07T02:00:46;16.27;;;9.13;;
59054;SDS011;44845;51.444;7.460;2023-02-07T02:03:12;17.25;;;9.07;;
59054;SDS011;44845;51.444;7.460;2023-02-07T02:05:37;17.55;;;8.95;;
59054;SDS011;44845;51.444;7.460;2023-02-07T02:08:03;17.77;;;7.95;;
59054;SDS011;44845;51.444;7.460;2023-02-07T02:10:40;19.73;;;8.25;;
59054;SDS011;44845;51.444;7.460;2023-02-07T02:13:36;14.80;;;8.27;;
59054;SDS011;44845;51.444;7.460;2023-02-07T02:16:18;15.77;;;7.70;;
59054;SDS011;44845;51.444;7.460;2023-02-07T02:19:07;18.13;;;8.45;;
59054;SDS011;44845;51.444;7.460;2023-02-07T02:35:54;13.35;;;7.75;;
59054;SDS011;44845;51.444;7.460;2023-02-07T02:38:34;17.80;;;7.90;;
59054;SDS011;44845;51.444;7.460;2023-02-07T02:41:20;20.48;;;8.85;;
59054;SDS011;44845;51.444;7.460;2023-02-07T02:46:39;15.65;;;7.22;;
59054;SDS011;44845;51.444;7.460;2023-02-07T02:49:07;15.32;;;7.70;;
59054;SDS011;44845;51.444;7.460;2023-02-07T02:51:35;12.90;;;7.03;;
59054;SDS011;44845;51.444;7.460;2023-02-07T02:54:01;16.17;;;7.40;;
59054;SDS011;44845;51.444;7.460;2023-02-07T02:56:42;12.45;;;6.80;;
59054;SDS011;44845;51.444;7.460;2023-02-07T02:59:16;17.55;;;7.05;;
59054;SDS011;44845;51.444;7.460;2023-02-07T03:05:07;14.48;;;6.78;;
59054;SDS011;44845;51.444;7.460;2023-02-07T03:16:08;14.18;;;6.80;;
59054;SDS011;44845;51.444;7.460;2023-02-07T03:21:30;13.18;;;6.88;;
59054;SDS011;44845;51.444;7.460;2023-02-07T03:24:05;14.10;;;7.00;;
59054;SDS011;44845;51.444;7.460;2023-02-07T03:26:38;11.23;;;6.75;;
59054;SDS011;44845;51.444;7.460;2023-02-07T03:29:07;12.98;;;7.30;;
59054;SDS011;44845;51.444;7.460;2023-02-07T03:31:35;11.23;;;6.40;;
59054;SDS011;44845;51.444;7.460;2023-02-07T03:34:08;13.18;;;7.63;;
59054;SDS011;44845;51.444;7.460;2023-02-07T03:36:41;16.50;;;7.32;;
59054;SDS011;44845;51.444;7.460;2023-02-07T03:39:15;14.85;;;7.22;;
59054;SDS011;44845;51.444;7.460;2023-02-07T03:41:42;12.30;;;7.10;;
59054;SDS011;44845;51.444;7.460;2023-02-07T03:44:12;14.27;;;7.70;;
59054;SDS011;44845;51.444;7.460;2023-02-07T03:46:40;12.80;;;6.88;;
59054;SDS011;44845;51.444;7.460;2023-02-07T03:49:06;14.00;;;7.05;;
59054;SDS011;44845;51.444;7.460;2023-02-07T03:51:35;14.63;;;8.00;;
59054;SDS011;44845;51.444;7.460;2023-02-07T03:54:01;13.63;;;6.88;;
59054;SDS011;44845;51.444;7.460;2023-02-07T03:56:26;15.00;;;7.75;;
59054;SDS011;44845;51.444;7.460;2023-02-07T03:58:52;14.88;;;8.13;;
59054;SDS011;44845;51.444;7.460;2023-02-07T04:01:19;13.80;;;7.38;;
59054;SDS011;44845;51.444;7.460;2023-02-07T04:03:45;15.30;;;7.45;;
59054;SDS011;44845;51.444;7.460;2023-02-07T04:06:10;17.23;;;8.35;;
59054;SDS011;44845;51.444;7.460;2023-02-07T04:08:35;13.40;;;7.10;;
59054;SDS011;44845;51.444;7.460;2023-02-07T04:11:01;13.93;;;7.95;;
59054;SDS011;44845;51.444;7.460;2023-02-07T04:13:28;16.25;;;7.88;;
59054;SDS011;44845;51.444;7.460;2023-02-07T04:15:54;13.88;;;7.78;;
59054;SDS011;44845;51.444;7.460;2023-02-07T04:18:19;16.50;;;8.52;;
59054;SDS011;44845;51.444;7.460;2023-02-07T04:20:45;13.60;;;7.20;;
59054;SDS011;44845;51.444;7.460;2023-02-07T04:23:11;16.30;;;7.03;;
59054;SDS011;44845;51.444;7.460;2023-02-07T04:25:36;15.57;;;7.30;;
59054;SDS011;44845;51.444;7.460;2023-02-07T04:28:02;14.32;;;7.03;;
59054;SDS011;44845;51.444;7.460;2023-02-07T04:30:27;11.80;;;6.97;;
59054;SDS011;44845;51.444;7.460;2023-02-07T04:32:52;11.50;;;7.07;;
59054;SDS011;44845;51.444;7.460;2023-02-07T04:35:18;14.05;;;7.28;;
59054;SDS011;44845;51.444;7.460;2023-02-07T04:37:43;13.27;;;7.57;;
59054;SDS011;44845;51.444;7.460;2023-02-07T04:40:09;14.18;;;6.78;;
59054;SDS011;44845;51.444;7.460;2023-02-07T04:42:34;12.57;;;6.32;;
59054;SDS011;44845;51.444;7.460;2023-02-07T04:45:00;14.88;;;6.97;;
59054;SDS011;44845;51.444;7.460;2023-02-07T04:47:25;13.77;;;6.93;;
59054;SDS011;44845;51.444;7.460;2023-02-07T04:49:50;16.33;;;7.82;;
59054;SDS011;44845;51.444;7.460;2023-02-07T04:52:16;11.85;;;6.38;;
59054;SDS011;44845;51.444;7.460;2023-02-07T04:54:41;13.98;;;7.55;;
59054;SDS011;44845;51.444;7.460;2023-02-07T04:57:07;12.68;;;6.30;;
59054;SDS011;44845;51.444;7.460;2023-02-07T04:59:32;9.65;;;5.60;;
59054;SDS011;44845;51.444;7.460;2023-02-07T05:01:57;12.20;;;6.45;;
59054;SDS011;44845;51.444;7.460;2023-02-07T05:04:23;11.30;;;5.30;;
59054;SDS011;44845;51.444;7.460;2023-02-07T05:06:48;8.90;;;4.90;;
59054;SDS011;44845;51.444;7.460;2023-02-07T05:09:13;12.60;;;5.40;;
59054;SDS011;44845;51.444;7.460;2023-02-07T05:11:39;7.68;;;4.22;;
59054;SDS011;44845;51.444;7.460;2023-02-07T05:14:04;7.57;;;4.28;;
59054;SDS011;44845;51.444;7.460;2023-02-07T05:16:29;11.15;;;5.13;;
59054;SDS011;44845;51.444;7.460;2023-02-07T05:18:55;9.95;;;5.25;;
59054;SDS011;44845;51.444;7.460;2023-02-07T05:21:20;10.20;;;5.88;;
59054;SDS011;44845;51.444;7.460;2023-02-07T05:23:46;13.57;;;6.20;;
59054;SDS011;44845;51.444;7.460;2023-02-07T05:26:11;12.55;;;6.32;;
59054;SDS011;44845;51.444;7.460;2023-02-07T05:28:36;14.30;;;6.78;;
59054;SDS011;44845;51.444;7.460;2023-02-07T05:31:02;14.68;;;7.15;;
59054;SDS011;44845;51.444;7.460;2023-02-07T05:33:27;16.35;;;6.80;;
59054;SDS011;44845;51.444;7.460;2023-02-07T05:35:52;15.32;;;6.80;;
59054;SDS011;44845;51.444;7.460;2023-02-07T05:38:18;13.25;;;6.65;;
59054;SDS011;44845;51.444;7.460;2023-02-07T05:40:44;17.63;;;6.90;;
59054;SDS011;44845;51.444;7.460;2023-02-07T05:43:10;13.73;;;7.10;;
59054;SDS011;44845;51.444;7.460;2023-02-07T05:45:36;13.30;;;7.10;;
59054;SDS011;44845;51.444;7.460;2023-02-07T05:48:02;12.93;;;6.22;;
59054;SDS011;44845;51.444;7.460;2023-02-07T05:50:27;14.30;;;7.32;;
59054;SDS011;44845;51.444;7.460;2023-02-07T05:52:53;11.13;;;6.10;;
59054;SDS011;44845;51.444;7.460;2023-02-07T05:55:19;11.43;;;6.63;;
59054;SDS011;44845;51.444;7.460;2023-02-07T05:57:44;14.57;;;6.97;;
59054;SDS011;44845;51.444;7.460;2023-02-07T06:00:14;11.35;;;6.25;;
59054;SDS011;44845;51.444;7.460;2023-02-07T06:02:41;12.65;;;6.95;;
59054;SDS011;44845;51.444;7.460;2023-02-07T06:05:08;13.60;;;6.82;;
59054;SDS011;44845;51.444;7.460;2023-02-07T06:07:35;12.13;;;6.32;;
59054;SDS011;44845;51.444;7.460;2023-02-07T06:10:01;11.60;;;6.57;;
59054;SDS011;44845;51.444;7.460;2023-02-07T06:12:26;11.30;;;6.07;;
59054;SDS011;44845;51.444;7.460;2023-02-07T06:14:52;10.48;;;6.22;;
59054;SDS011;44845;51.444;7.460;2023-02-07T06:17:17;12.95;;;6.43;;
59054;SDS011;44845;51.444;7.460;2023-02-07T06:19:42;12.55;;;6.70;;
59054;SDS011;44845;51.444;7.460;2023-02-07T06:22:08;10.95;;;6.15;;
59054;SDS011;44845;51.444;7.460;2023-02-07T06:24:33;12.88;;;6.68;;
59054;SDS011;44845;51.444;7.460;2023-02-07T06:26:59;11.20;;;6.85;;
59054;SDS011;44845;51.444;7.460;2023-02-07T06:29:24;15.55;;;6.53;;
59054;SDS011;44845;51.444;7.460;2023-02-07T06:31:50;12.95;;;7.20;;
59054;SDS011;44845;51.444;7.460;2023-02-07T06:34:15;10.30;;;6.03;;
59054;SDS011;44845;51.444;7.460;2023-02-07T06:36:40;12.30;;;6.25;;
59054;SDS011;44845;51.444;7.460;2023-02-07T06:39:06;12.43;;;6.25;;
59054;SDS011;44845;51.444;7.460;2023-02-07T06:41:33;12.40;;;6.10;;
59054;SDS011;44845;51.444;7.460;2023-02-07T06:43:59;10.07;;;5.75;;
59054;SDS011;44845;51.444;7.460;2023-02-07T06:46:24;11.15;;;6.05;;
59054;SDS011;44845;51.444;7.460;2023-02-07T06:48:49;15.50;;;6.38;;
59054;SDS011;44845;51.444;7.460;2023-02-07T06:51:15;10.63;;;6.68;;
59054;SDS011;44845;51.444;7.460;2023-02-07T06:53:40;14.15;;;6.72;;
59054;SDS011;44845;51.444;7.460;2023-02-07T06:56:06;14.98;;;6.63;;
59054;SDS011;44845;51.444;7.460;2023-02-07T06:58:31;14.15;;;6.50;;
59054;SDS011;44845;51.444;7.460;2023-02-07T07:00:59;16.23;;;6.55;;
59054;SDS011;44845;51.444;7.460;2023-02-07T07:03:26;12.23;;;6.95;;
59054;SDS011;44845;51.444;7.460;2023-02-07T07:05:53;13.52;;;6.55;;
59054;SDS011;44845;51.444;7.460;2023-02-07T07:08:20;12.20;;;6.75;;
59054;SDS011;44845;51.444;7.460;2023-02-07T07:10:45;13.27;;;7.22;;
59054;SDS011;44845;51.444;7.460;2023-02-07T07:13:11;11.98;;;6.90;;
59054;SDS011;44845;51.444;7.460;2023-02-07T07:15:36;15.18;;;6.72;;
59054;SDS011;44845;51.444;7.460;2023-02-07T07:18:02;15.32;;;6.28;;
59054;SDS011;44845;51.444;7.460;2023-02-07T07:20:27;11.57;;;6.22;;
59054;SDS011;44845;51.444;7.460;2023-02-07T07:22:52;12.80;;;5.85;;
59054;SDS011;44845;51.444;7.460;2023-02-07T07:25:18;10.02;;;5.90;;
59054;SDS011;44845;51.444;7.460;2023-02-07T07:27:44;12.20;;;6.50;;
59054;SDS011;44845;51.444;7.460;2023-02-07T07:30:09;10.70;;;6.22;;
59054;SDS011;44845;51.444;7.460;2023-02-07T07:32:35;8.73;;;5.40;;
59054;SDS011;44845;51.444;7.460;2023-02-07T07:35:01;13.18;;;5.63;;
59054;SDS011;44845;51.444;7.460;2023-02-07T07:37:27;9.38;;;5.28;;
59054;SDS011;44845;51.444;7.460;2023-02-07T07:39:52;7.35;;;5.10;;
59054;SDS011;44845;51.444;7.460;2023-02-07T07:42:18;9.77;;;5.20;;
59054;SDS011;44845;51.444;7.460;2023-02-07T07:44:43;7.53;;;5.00;;
59054;SDS011;44845;51.444;7.460;2023-02-07T07:47:08;7.82;;;5.13;;
59054;SDS011;44845;51.444;7.460;2023-02-07T07:49:34;9.05;;;5.45;;
59054;SDS011;44845;51.444;7.460;2023-02-07T07:51:59;8.02;;;5.00;;
59054;SDS011;44845;51.444;7.460;2023-02-07T07:54:24;7.95;;;4.80;;
59054;SDS011;44845;51.444;7.460;2023-02-07T07:56:50;9.13;;;4.47;;
59054;SDS011;44845;51.444;7.460;2023-02-07T07:59:15;8.30;;;5.28;;
59054;SDS011;44845;51.444;7.460;2023-02-07T08:01:41;7.57;;;4.43;;
59054;SDS011;44845;51.444;7.460;2023-02-07T08:04:06;6.07;;;4.05;;
59054;SDS011;44845;51.444;7.460;2023-02-07T08:06:32;7.78;;;5.00;;
59054;SDS011;44845;51.444;7.460;2023-02-07T08:08:57;6.38;;;4.57;;
59054;SDS011;44845;51.444;7.460;2023-02-07T08:11:23;6.75;;;4.60;;
59054;SDS011;44845;51.444;7.460;2023-02-07T08:13:48;7.40;;;4.97;;
59054;SDS011;44845;51.444;7.460;2023-02-07T08:16:14;6.97;;;4.75;;
59054;SDS011;44845;51.444;7.460;2023-02-07T08:18:40;9.25;;;4.65;;
59054;SDS011;44845;51.444;7.460;2023-02-07T08:21:06;8.38;;;5.65;;
59054;SDS011;44845;51.444;7.460;2023-02-07T08:23:32;9.82;;;5.07;;
59054;SDS011;44845;51.444;7.460;2023-02-07T08:25:58;6.75;;;4.13;;
59054;SDS011;44845;51.444;7.460;2023-02-07T08:28:23;6.30;;;4.05;;
59054;SDS011;44845;51.444;7.460;2023-02-07T08:30:50;9.13;;;5.00;;
59054;SDS011;44845;51.444;7.460;2023-02-07T08:33:15;6.97;;;4.97;;
59054;SDS011;44845;51.444;7.460;2023-02-07T08:35:41;7.15;;;5.15;;
59054;SDS011;44845;51.444;7.460;2023-02-07T08:38:07;11.27;;;6.22;;
59054;SDS011;44845;51.444;7.460;2023-02-07T08:40:33;8.63;;;5.28;;
59054;SDS011;44845;51.444;7.460;2023-02-07T08:42:59;8.18;;;5.32;;
59054;SDS011;44845;51.444;7.460;2023-02-07T08:45:24;6.18;;;4.68;;
59054;SDS011;44845;51.444;7.460;2023-02-07T08:47:50;7.70;;;5.15;;
59054;SDS011;44845;51.444;7.460;2023-02-07T08:50:16;8.27;;;4.95;;
59054;SDS011;44845;51.444;7.460;2023-02-07T08:52:42;6.80;;;4.53;;
59054;SDS011;44845;51.444;7.460;2023-02-07T08:55:07;6.95;;;5.05;;
59054;SDS011;44845;51.444;7.460;2023-02-07T08:57:33;9.07;;;4.53;;
59054;SDS011;44845;51.444;7.460;2023-02-07T08:59:59;8.88;;;4.65;;
59054;SDS011;44845;51.444;7.460;2023-02-07T09:02:25;9.60;;;4.20;;
59054;SDS011;44845;51.444;7.460;2023-02-07T09:04:51;8.10;;;4.63;;
59054;SDS011;44845;51.444;7.460;2023-02-07T09:07:17;6.57;;;4.57;;
59054;SDS011;44845;51.444;7.460;2023-02-07T09:09:43;8.27;;;5.03;;
59054;SDS011;44845;51.444;7.460;2023-02-07T09:12:09;8.27;;;4.60;;
59054;SDS011;44845;51.444;7.460;2023-02-07T09:14:35;7.80;;;4.22;;
59054;SDS011;44845;51.444;7.460;2023-02-07T09:17:01;8.82;;;4.57;;
59054;SDS011;44845;51.444;7.460;2023-02-07T09:19:27;7.00;;;4.13;;
59054;SDS011;44845;51.444;7.460;2023-02-07T09:21:53;8.55;;;4.38;;
59054;SDS011;44845;51.444;7.460;2023-02-07T09:24:18;7.50;;;4.63;;
59054;SDS011;44845;51.444;7.460;2023-02-07T09:26:44;5.93;;;4.13;;
59054;SDS011;44845;51.444;7.460;2023-02-07T09:29:10;6.57;;;4.22;;
59054;SDS011;44845;51.444;7.460;2023-02-07T09:31:37;6.57;;;4.15;;
59054;SDS011;44845;51.444;7.460;2023-02-07T09:34:02;7.20;;;4.05;;
59054;SDS011;44845;51.444;7.460;2023-02-07T09:36:29;6.78;;;4.13;;
59054;SDS011;44845;51.444;7.460;2023-02-07T09:38:55;10.50;;;4.95;;
59054;SDS011;44845;51.444;7.460;2023-02-07T09:44:15;6.60;;;4.10;;
59054;SDS011;44845;51.444;7.460;2023-02-07T09:46:49;7.20;;;5.03;;
59054;SDS011;44845;51.444;7.460;2023-02-07T09:51:53;7.60;;;4.25;;
59054;SDS011;44845;51.444;7.460;2023-02-07T09:54:41;8.20;;;4.18;;
59054;SDS011;44845;51.444;7.460;2023-02-07T09:57:14;6.50;;;4.88;;
59054;SDS011;44845;51.444;7.460;2023-02-07T09:59:51;7.03;;;5.13;;
59054;SDS011;44845;51.444;7.460;2023-02-07T10:02:31;6.60;;;4.07;;
59054;SDS011;44845;51.444;7.460;2023-02-07T10:05:04;9.43;;;4.45;;
59054;SDS011;44845;51.444;7.460;2023-02-07T10:07:37;7.03;;;4.50;;
59054;SDS011;44845;51.444;7.460;2023-02-07T10:10:03;7.53;;;4.15;;
59054;SDS011;44845;51.444;7.460;2023-02-07T10:21:14;6.25;;;3.60;;
59054;SDS011;44845;51.444;7.460;2023-02-07T10:23:57;4.07;;;3.45;;
59054;SDS011;44845;51.444;7.460;2023-02-07T10:26:52;4.90;;;3.10;;
59054;SDS011;44845;51.444;7.460;2023-02-07T10:31:58;5.53;;;3.00;;
59054;SDS011;44845;51.444;7.460;2023-02-07T10:34:29;4.85;;;3.17;;
59054;SDS011;44845;51.444;7.460;2023-02-07T10:36:59;4.10;;;2.70;;
59054;SDS011;44845;51.444;7.460;2023-02-07T10:39:35;4.25;;;2.90;;
59054;SDS011;44845;51.444;7.460;2023-02-07T10:42:04;6.38;;;2.80;;
59054;SDS011;44845;51.444;7.460;2023-02-07T10:44:35;4.25;;;2.55;;
59054;SDS011;44845;51.444;7.460;2023-02-07T10:47:02;3.15;;;2.60;;
59054;SDS011;44845;51.444;7.460;2023-02-07T10:49:30;2.97;;;2.47;;
59054;SDS011;44845;51.444;7.460;2023-02-07T10:57:25;3.40;;;2.83;;
59054;SDS011;44845;51.444;7.460;2023-02-07T11:04:52;4.63;;;3.13;;
59054;SDS011;44845;51.444;7.460;2023-02-07T11:07:17;4.35;;;3.28;;
59054;SDS011;44845;51.444;7.460;2023-02-07T11:09:45;4.90;;;2.75;;
59054;SDS011;44845;51.444;7.460;2023-02-07T11:12:16;4.43;;;3.00;;
59054;SDS011;44845;51.444;7.460;2023-02-07T11:17:26;4.00;;;3.10;;
59054;SDS011;44845;51.444;7.460;2023-02-07T11:19:52;4.97;;;3.70;;
59054;SDS011;44845;51.444;7.460;2023-02-07T11:22:19;4.80;;;3.65;;
59054;SDS011;44845;51.444;7.460;2023-02-07T11:24:46;4.75;;;3.13;;
59054;SDS011;44845;51.444;7.460;2023-02-07T11:27:15;4.47;;;3.50;;
59054;SDS011;44845;51.444;7.460;2023-02-07T11:29:49;4.40;;;3.78;;
59054;SDS011;44845;51.444;7.460;2023-02-07T11:32:18;5.35;;;3.70;;
59054;SDS011;44845;51.444;7.460;2023-02-07T11:34:56;5.15;;;3.90;;
59054;SDS011;44845;51.444;7.460;2023-02-07T11:42:42;5.65;;;3.70;;
59054;SDS011;44845;51.444;7.460;2023-02-07T11:45:15;4.00;;;3.50;;
59054;SDS011;44845;51.444;7.460;2023-02-07T11:47:43;4.53;;;3.70;;
59054;SDS011;44845;51.444;7.460;2023-02-07T11:50:17;7.05;;;4.38;;
59054;SDS011;44845;51.444;7.460;2023-02-07T11:52:55;6.18;;;4.50;;
59054;SDS011;44845;51.444;7.460;2023-02-07T11:55:29;5.78;;;4.22;;
59054;SDS011;44845;51.444;7.460;2023-02-07T11:58:00;7.22;;;4.40;;
59054;SDS011;44845;51.444;7.460;2023-02-07T12:00:33;4.95;;;3.90;;
59054;SDS011;44845;51.444;7.460;2023-02-07T12:03:08;8.15;;;4.60;;
59054;SDS011;44845;51.444;7.460;2023-02-07T12:05:47;4.47;;;3.50;;
59054;SDS011;44845;51.444;7.460;2023-02-07T12:08:17;6.60;;;4.53;;
59054;SDS011;44845;51.444;7.460;2023-02-07T12:10:48;5.53;;;4.40;;
59054;SDS011;44845;51.444;7.460;2023-02-07T12:13:23;5.85;;;4.03;;
59054;SDS011;44845;51.444;7.460;2023-02-07T12:20:54;7.03;;;4.50;;
59054;SDS011;44845;51.444;7.460;2023-02-07T12:25:58;6.15;;;3.70;;
59054;SDS011;44845;51.444;7.460;2023-02-07T12:28:33;5.28;;;3.92;;
59054;SDS011;44845;51.444;7.460;2023-02-07T12:31:06;8.75;;;4.32;;
59054;SDS011;44845;51.444;7.460;2023-02-07T12:33:48;5.47;;;4.10;;
59054;SDS011;44845;51.444;7.460;2023-02-07T12:36:22;6.32;;;3.92;;
59054;SDS011;44845;51.444;7.460;2023-02-07T12:39:17;5.47;;;3.75;;
59054;SDS011;44845;51.444;7.460;2023-02-07T12:41:47;7.65;;;3.88;;
59054;SDS011;44845;51.444;7.460;2023-02-07T12:47:06;6.15;;;4.32;;
59054;SDS011;44845;51.444;7.460;2023-02-07T12:58:20;8.20;;;4.10;;
59054;SDS011;44845;51.444;7.460;2023-02-07T13:04:03;4.18;;;3.72;;
59054;SDS011;44845;51.444;7.460;2023-02-07T13:12:25;6.30;;;4.20;;
59054;SDS011;44845;51.444;7.460;2023-02-07T13:15:08;6.18;;;4.07;;
59054;SDS011;44845;51.444;7.460;2023-02-07T13:23:30;5.88;;;4.03;;
59054;SDS011;44845;51.444;7.460;2023-02-07T13:26:02;4.70;;;3.90;;
59054;SDS011;44845;51.444;7.460;2023-02-07T13:31:04;7.55;;;3.95;;
59054;SDS011;44845;51.444;7.460;2023-02-07T13:33:33;8.05;;;3.90;;
59054;SDS011;44845;51.444;7.460;2023-02-07T13:36:04;5.25;;;4.10;;
59054;SDS011;44845;51.444;7.460;2023-02-07T13:41:26;5.80;;;4.13;;
59054;SDS011;44845;51.444;7.460;2023-02-07T13:43:57;7.45;;;4.30;;
59054;SDS011;44845;51.444;7.460;2023-02-07T13:52:20;4.93;;;3.80;;
59054;SDS011;44845;51.444;7.460;2023-02-07T13:57:44;7.00;;;4.32;;
59054;SDS011;44845;51.444;7.460;2023-02-07T14:00:34;5.60;;;3.92;;
59054;SDS011;44845;51.444;7.460;2023-02-07T14:03:22;9.32;;;4.55;;
59054;SDS011;44845;51.444;7.460;2023-02-07T14:05:54;4.25;;;3.80;;
59054;SDS011;44845;51.444;7.460;2023-02-07T14:09:00;6.95;;;4.00;;
59054;SDS011;44845;51.444;7.460;2023-02-07T14:11:43;7.10;;;4.68;;
59054;SDS011;44845;51.444;7.460;2023-02-07T14:16:54;6.40;;;3.95;;
59054;SDS011;44845;51.444;7.460;2023-02-07T14:20:15;4.75;;;4.03;;
59054;SDS011;44845;51.444;7.460;2023-02-07T14:38:01;5.32;;;4.20;;
59054;SDS011;44845;51.444;7.460;2023-02-07T14:45:37;5.80;;;4.13;;
59054;SDS011;44845;51.444;7.460;2023-02-07T14:48:05;5.55;;;4.20;;
59054;SDS011;44845;51.444;7.460;2023-02-07T14:50:51;7.72;;;4.03;;
59054;SDS011;44845;51.444;7.460;2023-02-07T14:53:18;6.05;;;4.30;;
59054;SDS011;44845;51.444;7.460;2023-02-07T14:55:49;7.43;;;4.32;;
59054;SDS011;44845;51.444;7.460;2023-02-07T14:58:25;5.60;;;4.25;;
59054;SDS011;44845;51.444;7.460;2023-02-07T15:00:59;5.13;;;4.38;;
59054;SDS011;44845;51.444;7.460;2023-02-07T15:03:27;6.05;;;4.30;;
59054;SDS011;44845;51.444;7.460;2023-02-07T15:05:57;5.70;;;4.28;;
59054;SDS011;44845;51.444;7.460;2023-02-07T15:08:29;6.35;;;4.50;;
59054;SDS011;44845;51.444;7.460;2023-02-07T15:11:06;5.03;;;3.92;;
59054;SDS011;44845;51.444;7.460;2023-02-07T15:13:42;5.40;;;4.22;;
59054;SDS011;44845;51.444;7.460;2023-02-07T15:16:14;6.03;;;4.03;;
59054;SDS011;44845;51.444;7.460;2023-02-07T15:18:45;7.10;;;4.25;;
59054;SDS011;44845;51.444;7.460;2023-02-07T15:21:18;4.85;;;4.10;;
59054;SDS011;44845;51.444;7.460;2023-02-07T15:23:50;7.25;;;4.45;;
59054;SDS011;44845;51.444;7.460;2023-02-07T15:26:22;5.82;;;4.28;;
59054;SDS011;44845;51.444;7.460;2023-02-07T15:28:54;7.32;;;4.90;;
59054;SDS011;44845;51.444;7.460;2023-02-07T15:33:48;6.57;;;4.57;;
59054;SDS011;44845;51.444;7.460;2023-02-07T15:39:03;6.72;;;4.28;;
59054;SDS011;44845;51.444;7.460;2023-02-07T15:41:38;5.85;;;3.85;;
59054;SDS011;44845;51.444;7.460;2023-02-07T15:44:04;8.80;;;4.28;;
59054;SDS011;44845;51.444;7.460;2023-02-07T15:46:43;6.63;;;4.38;;
59054;SDS011;44845;51.444;7.460;2023-02-07T15:49:56;7.47;;;4.05;;
59054;SDS011;44845;51.444;7.460;2023-02-07T15:54:36;7.07;;;4.07;;
59054;SDS011;44845;51.444;7.460;2023-02-07T15:57:03;8.82;;;4.30;;
59054;SDS011;44845;51.444;7.460;2023-02-07T15:59:34;7.55;;;4.60;;
59054;SDS011;44845;51.444;7.460;2023-02-07T16:02:01;8.02;;;4.45;;
59054;SDS011;44845;51.444;7.460;2023-02-07T16:04:28;6.05;;;4.65;;
59054;SDS011;44845;51.444;7.460;2023-02-07T16:07:00;5.40;;;4.22;;
59054;SDS011;44845;51.444;7.460;2023-02-07T16:10:01;7.07;;;4.72;;
59054;SDS011;44845;51.444;7.460;2023-02-07T16:12:42;6.47;;;4.75;;
59054;SDS011;44845;51.444;7.460;2023-02-07T16:15:27;6.43;;;4.70;;
59054;SDS011;44845;51.444;7.460;2023-02-07T16:18:04;6.90;;;4.75;;
59054;SDS011;44845;51.444;7.460;2023-02-07T16:20:31;5.82;;;4.43;;
59054;SDS011;44845;51.444;7.460;2023-02-07T16:23:01;6.38;;;4.75;;
59054;SDS011;44845;51.444;7.460;2023-02-07T16:25:31;8.25;;;5.00;;
59054;SDS011;44845;51.444;7.460;2023-02-07T16:27:58;7.75;;;5.65;;
59054;SDS011;44845;51.444;7.460;2023-02-07T16:30:32;7.60;;;5.38;;
59054;SDS011;44845;51.444;7.460;2023-02-07T16:33:06;7.13;;;4.65;;
59054;SDS011;44845;51.444;7.460;2023-02-07T16:35:35;11.18;;;5.07;;
59054;SDS011;44845;51.444;7.460;2023-02-07T16:38:00;9.57;;;5.53;;
59054;SDS011;44845;51.444;7.460;2023-02-07T16:40:26;7.60;;;5.22;;
59054;SDS011;44845;51.444;7.460;2023-02-07T16:42:52;8.13;;;5.57;;
59054;SDS011;44845;51.444;7.460;2023-02-07T16:45:20;8.45;;;5.53;;
59054;SDS011;44845;51.444;7.460;2023-02-07T16:47:49;9.15;;;5.85;;
59054;SDS011;44845;51.444;7.460;2023-02-07T16:50:18;10.60;;;6.80;;
59054;SDS011;44845;51.444;7.460;2023-02-07T16:52:45;10.07;;;5.70;;
59054;SDS011;44845;51.444;7.460;2023-02-07T16:55:13;8.48;;;6.22;;
59054;SDS011;44845;51.444;7.460;2023-02-07T16:57:39;8.88;;;6.65;;
59054;SDS011;44845;51.444;7.460;2023-02-07T17:00:07;9.95;;;7.40;;
59054;SDS011;44845;51.444;7.460;2023-02-07T17:02:33;10.70;;;6.68;;
59054;SDS011;44845;51.444;7.460;2023-02-07T17:04:58;9.90;;;6.75;;
59054;SDS011;44845;51.444;7.460;2023-02-07T17:07:24;10.05;;;6.88;;
59054;SDS011;44845;51.444;7.460;2023-02-07T17:09:49;14.05;;;7.13;;
59054;SDS011;44845;51.444;7.460;2023-02-07T17:12:15;13.85;;;7.90;;
59054;SDS011;44845;51.444;7.460;2023-02-07T17:14:41;12.10;;;7.00;;
59054;SDS011;44845;51.444;7.460;2023-02-07T17:17:07;7.80;;;5.47;;
59054;SDS011;44845;51.444;7.460;2023-02-07T17:19:34;9.10;;;5.13;;